This is the latest recevied weather packets stored in our database for station/object KE8RXN. If no packets are shown the sender has not sent any weather packets the latest 1 day(s).
| Time | Temp. | Humidity | Pressure | Rain* | Wind** | Luminosity | Snow |
|---|---|---|---|---|---|---|---|
| 1778029761 | 8.89° C | 55% | 1012.4 hPa | 0 mm | 0 m/s | 0 W/m² | - |
| 1778029460 | 8.89° C | 55% | 1012.4 hPa | 0 mm | 0.45 m/s, 24° | 0 W/m² | - |
| 1778029156 | 8.89° C | 55% | 1012.3 hPa | 0 mm | 0 m/s | 0 W/m² | - |
| 1778028854 | 9.44° C | 55% | 1012.3 hPa | 0 mm | 0 m/s | 0 W/m² | - |
| 1778028549 | 9.44° C | 54% | 1012.4 hPa | 0 mm | 0 m/s | 0 W/m² | - |
| 1778028247 | 9.44° C | 54% | 1012.1 hPa | 0 mm | 0 m/s | 0 W/m² | - |
| 1778027943 | 9.44° C | 53% | 1012.2 hPa | 0 mm | 0 m/s | 1 W/m² | - |
| 1778027639 | 9.44° C | 52% | 1012.1 hPa | 0 mm | 0.45 m/s, 1° | 3 W/m² | - |
| 1778027336 | 10° C | 51% | 1012.3 hPa | 0 mm | 0.45 m/s, 0° | 4 W/m² | - |
| 1778027032 | 10° C | 51% | 1012.2 hPa | 0 mm | 0 m/s | 6 W/m² | - |
| 1778026728 | 10° C | 50% | 1012.2 hPa | 0 mm | 0.89 m/s, 334° | 12 W/m² | - |
| 1778026425 | 10° C | 50% | 1012.2 hPa | 0 mm | 0.45 m/s, 326° | 14 W/m² | - |
| 1778026133 | 10° C | 50% | 1012 hPa | 0 mm | 0.45 m/s, 353° | 15 W/m² | - |
| 1778025820 | 10° C | 50% | 1012.2 hPa | 0 mm | 0 m/s | 18 W/m² | - |
| 1778025516 | 10.56° C | 49% | 1012.1 hPa | 0 mm | 0 m/s | 23 W/m² | - |
| 1778025214 | 10.56° C | 47% | 1012.1 hPa | 0 mm | 0.45 m/s, 358° | 29 W/m² | - |
| 1778024911 | 10.56° C | 48% | 1012.2 hPa | 0 mm | 0.45 m/s, 12° | 28 W/m² | - |
| 1778024609 | 10.56° C | 47% | 1012.4 hPa | 0 mm | 0.89 m/s, 265° | 35 W/m² | - |
| 1778024316 | 10.56° C | 47% | 1012 hPa | 0 mm | 0.89 m/s, 216° | 36 W/m² | - |
| 1778024003 | 10.56° C | 47% | 1012 hPa | 0 mm | 0.45 m/s, 10° | 35 W/m² | - |
| 1778023700 | 10.56° C | 46% | 1012.2 hPa | 0 mm | 0.45 m/s, 288° | 44 W/m² | - |
| 1778023398 | 10.56° C | 45% | 1012.1 hPa | 0 mm | 0.89 m/s, 239° | 44 W/m² | - |
| 1778023094 | 10.56° C | 45% | 1011.9 hPa | 0 mm | 0.89 m/s, 273° | 50 W/m² | - |
| 1778022793 | 10.56° C | 44% | 1012.1 hPa | 0 mm | 2.24 m/s, 288° | 60 W/m² | - |
| 1778022491 | 10.56° C | 45% | 1012.1 hPa | 0 mm | 0.45 m/s, 319° | 59 W/m² | - |
* Rain latest hour (hover to see other rain measurements)
** Current wind speed in m/s (hover to see current wind gust speed)